Time;durP1;ratioP1;P1;durP2;ratioP2;P2;SDS_P1;SDS_P2;PMS_P1;PMS_P2;Temp;Humidity;BMP_temperature;BMP_pressure;BME280_temperature;BME280_humidity;BME280_pressure;Samples;Min_cycle;Max_cycle;Signal;HPM_P1;HPM_P2
2022/04/29 00:00:30;;;;;;;8.07;7.28;;;;;;;12.65;73.68;100332.16;4960925;28;20302;-81
2022/04/29 00:02:58;;;;;;;8.38;6.93;;;;;;;12.51;74.31;100329.34;4960165;28;20213;-80
2022/04/29 00:05:25;;;;;;;8.57;7.80;;;;;;;12.65;73.70;100337.56;4962965;28;20199;-80
2022/04/29 00:07:52;;;;;;;8.55;7.53;;;;;;;12.73;73.54;100324.50;4962494;28;20203;-80
2022/04/29 00:10:20;;;;;;;9.25;8.35;;;;;;;12.80;73.36;100324.13;4963775;29;20269;-80
2022/04/29 00:12:49;;;;;;;10.57;7.88;;;;;;;12.70;73.96;100327.34;4963087;28;20547;-81
2022/04/29 00:15:17;;;;;;;8.32;7.53;;;;;;;12.71;73.31;100325.56;4963383;28;20699;-80
2022/04/29 00:17:44;;;;;;;8.60;7.65;;;;;;;12.57;74.79;100330.81;4961563;29;20225;-80
2022/04/29 00:20:13;;;;;;;8.23;7.43;;;;;;;12.54;76.34;100331.88;4961778;28;20266;-80
2022/04/29 00:22:40;;;;;;;10.50;7.90;;;;;;;12.64;76.09;100329.53;4962951;29;20205;-80
2022/04/29 00:25:08;;;;;;;8.45;7.25;;;;;;;12.62;76.05;100326.06;4965674;28;20204;-81
2022/04/29 00:27:36;;;;;;;9.15;8.23;;;;;;;12.56;76.99;100334.50;4961070;29;20282;-81
2022/04/29 00:30:03;;;;;;;9.75;8.07;;;;;;;12.44;77.70;100334.22;4962185;29;20662;-81
2022/04/29 00:32:30;;;;;;;10.43;8.75;;;;;;;12.34;79.07;100335.66;4961277;28;20213;-80
2022/04/29 00:34:57;;;;;;;9.40;8.40;;;;;;;12.29;79.92;100330.50;4961268;28;20565;-80
2022/04/29 00:37:25;;;;;;;8.75;7.95;;;;;;;12.27;79.76;100342.34;4959901;28;20212;-79
2022/04/29 00:39:51;;;;;;;8.02;7.30;;;;;;;12.26;79.52;100341.47;4959795;29;20216;-80
2022/04/29 00:42:21;;;;;;;9.13;8.10;;;;;;;12.24;79.59;100335.28;4962814;29;20193;-80
2022/04/29 00:44:48;;;;;;;8.82;7.93;;;;;;;12.10;80.35;100333.31;4953301;28;20243;-80
2022/04/29 00:47:16;;;;;;;8.68;7.68;;;;;;;11.98;81.16;100336.63;4961969;28;20197;-80
2022/04/29 00:49:43;;;;;;;8.18;7.38;;;;;;;11.90;82.21;100333.47;4963097;29;20669;-79
2022/04/29 00:52:12;;;;;;;7.63;6.82;;;;;;;11.88;82.21;100330.00;4963937;28;20216;-80
2022/04/29 00:54:43;;;;;;;10.15;8.18;;;;;;;11.85;82.20;100325.59;4963138;28;20216;-80
2022/04/29 00:57:14;;;;;;;8.95;8.15;;;;;;;11.88;80.91;100317.34;4962383;29;20208;-79
2022/04/29 00:59:52;;;;;;;9.02;8.15;;;;;;;11.55;82.29;100311.84;4959009;28;20193;-80
2022/04/29 01:02:18;;;;;;;8.98;8.05;;;;;;;11.43;83.59;100304.38;4962318;28;20256;-79
2022/04/29 01:04:53;;;;;;;8.02;7.32;;;;;;;11.43;84.47;100307.06;4963901;28;20211;-79
2022/04/29 01:07:19;;;;;;;8.50;7.70;;;;;;;11.43;84.73;100310.63;4961957;28;20221;-79
2022/04/29 01:09:47;;;;;;;8.48;7.68;;;;;;;11.58;83.82;100309.00;4962471;28;20564;-81
2022/04/29 01:12:14;;;;;;;7.90;7.15;;;;;;;11.68;83.39;100307.56;4963139;28;20217;-80
2022/04/29 01:14:44;;;;;;;9.73;7.85;;;;;;;11.39;85.12;100300.94;4961407;28;20205;-79
2022/04/29 01:17:10;;;;;;;8.35;7.60;;;;;;;11.21;87.31;100291.09;4955350;28;20234;-79
2022/04/29 01:19:38;;;;;;;9.18;8.25;;;;;;;11.16;88.37;100288.63;4967892;28;20207;-80
2022/04/29 01:22:07;;;;;;;10.27;8.20;;;;;;;11.18;87.93;100289.44;4968368;28;20196;-80
2022/04/29 01:24:34;;;;;;;9.23;7.50;;;;;;;11.16;87.51;100285.94;4970584;28;20225;-80
2022/04/29 01:27:00;;;;;;;13.10;8.00;;;;;;;11.33;85.71;100293.19;4970549;28;20205;-80
2022/04/29 01:29:29;;;;;;;7.75;7.03;;;;;;;11.43;84.15;100294.47;4970060;28;20206;-80
2022/04/29 01:31:56;;;;;;;9.35;8.35;;;;;;;11.48;83.49;100292.41;4962826;29;20254;-80
2022/04/29 01:34:23;;;;;;;8.20;7.40;;;;;;;11.57;82.85;100284.78;4969049;28;20200;-80
2022/04/29 01:36:49;;;;;;;8.85;7.32;;;;;;;11.57;82.85;100295.59;4968860;28;20197;-79
2022/04/29 01:39:17;;;;;;;8.70;7.43;;;;;;;11.22;85.90;100279.38;4967341;28;20602;-80
2022/04/29 01:41:44;;;;;;;9.00;8.13;;;;;;;11.04;88.47;100282.03;4968870;28;20631;-80
2022/04/29 01:44:10;;;;;;;8.68;7.88;;;;;;;11.01;89.66;100276.81;4969031;29;20205;-80
2022/04/29 01:46:37;;;;;;;8.65;7.85;;;;;;;10.93;90.73;100287.06;4967680;28;20197;-80
2022/04/29 01:49:04;;;;;;;12.68;8.50;;;;;;;10.95;90.66;100290.56;4968985;28;20287;-80
2022/04/29 01:51:30;;;;;;;9.57;8.10;;;;;;;10.99;90.43;100285.88;4966513;28;20589;-79
2022/04/29 01:53:57;;;;;;;9.30;8.40;;;;;;;11.11;89.73;100270.97;4958837;28;20203;-79
2022/04/29 01:56:33;;;;;;;8.73;7.88;;;;;;;11.20;88.59;100273.19;4967880;28;20201;-80
2022/04/29 01:59:00;;;;;;;8.77;7.97;;;;;;;11.07;89.01;100275.63;4955486;29;20203;-80
2022/04/29 02:01:27;;;;;;;8.80;8.00;;;;;;;10.99;90.41;100275.09;4969527;28;20209;-80
2022/04/29 02:03:54;;;;;;;9.68;8.45;;;;;;;10.96;90.78;100275.25;4970556;28;20201;-79
2022/04/29 02:06:20;;;;;;;11.23;7.85;;;;;;;11.01;90.21;100270.50;4965815;28;20223;-79
2022/04/29 02:08:48;;;;;;;8.77;7.88;;;;;;;11.03;90.21;100264.13;4961824;28;20224;-79
2022/04/29 02:11:17;;;;;;;8.80;7.90;;;;;;;10.85;91.15;100273.09;4965632;28;20260;-80
2022/04/29 02:13:45;;;;;;;8.82;7.93;;;;;;;10.82;91.78;100266.03;4966172;29;20196;-80
2022/04/29 02:16:11;;;;;;;9.43;8.38;;;;;;;10.91;91.33;100272.78;4967690;28;20292;-79
2022/04/29 02:18:38;;;;;;;8.73;7.78;;;;;;;10.79;91.11;100263.50;4967043;28;20304;-80
2022/04/29 02:21:05;;;;;;;9.10;8.20;;;;;;;10.70;92.28;100279.22;4966998;28;20193;-80
2022/04/29 02:23:31;;;;;;;9.50;8.50;;;;;;;10.68;92.81;100270.34;4966038;28;20635;-80
2022/04/29 02:25:58;;;;;;;9.07;8.15;;;;;;;10.72;92.72;100274.63;4964905;28;20259;-81
2022/04/29 02:28:25;;;;;;;8.98;8.18;;;;;;;10.55;94.06;100273.63;4964573;28;20232;-81
2022/04/29 02:30:52;;;;;;;9.20;7.30;;;;;;;10.57;94.49;100271.72;4962709;29;20224;-81
2022/04/29 02:33:19;;;;;;;8.98;8.07;;;;;;;10.67;93.18;100274.84;4964112;28;20586;-81
2022/04/29 02:35:46;;;;;;;10.82;8.43;;;;;;;10.60;93.08;100268.88;4952742;29;20205;-80
2022/04/29 02:38:12;;;;;;;9.25;8.13;;;;;;;10.55;93.96;100273.63;4960884;29;20211;-80
2022/04/29 02:40:39;;;;;;;9.20;8.30;;;;;;;10.40;95.19;100271.63;4961172;28;20279;-79
2022/04/29 02:43:06;;;;;;;9.25;8.25;;;;;;;10.51;94.42;100271.13;4962687;29;20236;-80
2022/04/29 02:45:33;;;;;;;9.43;8.30;;;;;;;10.41;95.08;100262.63;4957062;29;20200;-80
2022/04/29 02:48:01;;;;;;;9.45;8.38;;;;;;;10.52;94.06;100265.69;4960039;29;20197;-80
2022/04/29 02:50:27;;;;;;;9.73;8.77;;;;;;;10.33;95.75;100267.47;4964357;29;20203;-79
2022/04/29 02:52:54;;;;;;;8.85;7.95;;;;;;;10.34;95.41;100262.03;4965299;28;20213;-80
2022/04/29 02:55:21;;;;;;;9.10;8.20;;;;;;;10.33;94.88;100272.88;4965085;28;20197;-79
2022/04/29 02:57:47;;;;;;;9.50;8.60;;;;;;;10.19;96.17;100260.88;4963594;28;20207;-80
2022/04/29 03:00:15;;;;;;;9.02;8.20;;;;;;;10.03;98.07;100273.31;4960263;28;20619;-80
2022/04/29 03:02:41;;;;;;;9.60;8.70;;;;;;;9.96;98.70;100267.31;4948982;29;20203;-80
2022/04/29 03:05:09;;;;;;;12.48;9.02;;;;;;;10.17;97.35;100270.84;4961584;28;20199;-80
2022/04/29 03:07:36;;;;;;;9.30;8.40;;;;;;;10.31;96.62;100264.00;4953866;29;20266;-79
2022/04/29 03:10:03;;;;;;;9.65;8.65;;;;;;;10.25;96.33;100264.25;4962382;29;20283;-81
2022/04/29 03:12:29;;;;;;;9.40;8.30;;;;;;;10.25;96.51;100259.75;4961323;29;20213;-81
2022/04/29 03:15:15;;;;;;;10.48;9.45;;;;;;;10.27;96.50;100255.16;4960342;28;20555;-80
2022/04/29 03:20:27;;;;;;;12.00;9.10;;;;;;;10.28;96.68;100259.59;4962799;29;20200;-80
2022/04/29 03:22:54;;;;;;;9.27;8.32;;;;;;;10.29;96.52;100247.03;4961049;28;20228;-80
2022/04/29 03:25:20;;;;;;;9.95;9.05;;;;;;;10.23;96.11;100254.41;4959645;29;20204;-80
2022/04/29 03:27:47;;;;;;;9.00;7.90;;;;;;;10.40;95.24;100250.09;4963477;28;20268;-80
2022/04/29 03:30:14;;;;;;;10.07;8.90;;;;;;;10.18;95.89;100250.22;4964929;28;20708;-80
2022/04/29 03:32:40;;;;;;;9.10;8.15;;;;;;;10.12;97.44;100247.78;4965821;28;20224;-79
2022/04/29 03:35:08;;;;;;;11.65;9.02;;;;;;;10.05;98.32;100246.34;4964448;28;20308;-80
2022/04/29 03:37:36;;;;;;;10.20;9.20;;;;;;;10.02;98.65;100244.66;4961547;29;20350;-81
2022/04/29 03:40:02;;;;;;;10.02;9.02;;;;;;;9.97;98.81;100242.19;4950334;29;20229;-81
2022/04/29 03:42:29;;;;;;;9.90;8.93;;;;;;;10.03;99.14;100249.09;4957599;29;20200;-80
2022/04/29 03:44:55;;;;;;;10.57;9.55;;;;;;;10.06;98.56;100251.63;4963685;28;20715;-79
2022/04/29 03:47:22;;;;;;;12.45;11.18;;;;;;;10.00;99.19;100257.31;4963170;28;20291;-81
2022/04/29 03:49:49;;;;;;;10.85;9.85;;;;;;;10.03;99.12;100262.53;4965145;28;20211;-79
2022/04/29 03:52:15;;;;;;;12.98;10.80;;;;;;;10.00;99.18;100263.56;4964381;28;20224;-81
2022/04/29 03:54:43;;;;;;;25.30;12.77;;;;;;;10.00;99.88;100266.25;4963563;28;20256;-81
2022/04/29 03:57:10;;;;;;;11.93;10.05;;;;;;;10.17;98.50;100265.47;4964192;28;20205;-80
2022/04/29 03:59:36;;;;;;;12.13;9.68;;;;;;;10.23;97.67;100259.81;4966405;28;20272;-80
2022/04/29 04:02:04;;;;;;;10.30;9.20;;;;;;;10.26;97.18;100261.47;4964538;28;20203;-80
2022/04/29 04:04:31;;;;;;;10.60;9.43;;;;;;;10.26;97.31;100269.56;4963401;28;20237;-80
2022/04/29 04:07:01;;;;;;;11.13;9.80;;;;;;;10.18;98.22;100271.75;4962322;28;20193;-80
2022/04/29 04:09:28;;;;;;;11.05;9.80;;;;;;;10.05;99.32;100271.41;4961331;29;20216;-80
2022/04/29 04:11:56;;;;;;;11.75;10.13;;;;;;;10.01;100.00;100267.09;4947180;29;20208;-81
2022/04/29 04:14:22;;;;;;;11.38;9.07;;;;;;;10.15;99.56;100279.94;4962159;28;20197;-80
2022/04/29 04:16:49;;;;;;;10.95;8.90;;;;;;;10.18;98.53;100282.50;4959573;28;20239;-81
2022/04/29 04:19:17;;;;;;;10.30;9.30;;;;;;;10.25;97.50;100283.97;4963894;28;20208;-81
2022/04/29 04:21:43;;;;;;;11.02;9.30;;;;;;;10.16;98.70;100282.56;4962419;28;20256;-81
2022/04/29 04:24:10;;;;;;;10.77;9.70;;;;;;;10.10;99.60;100285.53;4961197;28;20486;-81
2022/04/29 04:26:37;;;;;;;10.73;9.73;;;;;;;10.33;97.23;100278.25;4960520;28;20227;-80
2022/04/29 04:29:05;;;;;;;10.60;9.50;;;;;;;10.28;96.89;100282.94;4957942;28;20203;-80
2022/04/29 04:31:31;;;;;;;11.35;10.25;;;;;;;10.28;97.72;100277.56;4959562;29;20293;-79
2022/04/29 04:33:58;;;;;;;13.65;10.38;;;;;;;10.13;97.98;100277.34;4952165;28;20206;-79
2022/04/29 04:36:24;;;;;;;15.88;11.85;;;;;;;9.98;99.83;100276.19;4943441;29;20287;-80
2022/04/29 04:38:51;;;;;;;14.60;11.68;;;;;;;9.86;100.00;100276.75;4958437;28;20311;-80
2022/04/29 04:41:18;;;;;;;12.05;10.88;;;;;;;9.84;100.00;100275.94;4958750;28;20284;-80
2022/04/29 04:43:44;;;;;;;12.75;11.35;;;;;;;9.82;100.00;100276.00;4955923;28;20204;-81
2022/04/29 04:46:13;;;;;;;13.52;10.48;;;;;;;9.69;100.00;100284.69;4958190;28;20226;-80
2022/04/29 04:48:40;;;;;;;14.85;11.73;;;;;;;9.66;100.00;100280.31;4959363;28;20289;-80
2022/04/29 04:51:07;;;;;;;19.92;11.18;;;;;;;9.73;100.00;100281.78;4958280;28;20204;-80
2022/04/29 04:53:33;;;;;;;11.90;10.60;;;;;;;9.79;100.00;100278.84;4958957;28;20216;-79
2022/04/29 04:56:00;;;;;;;12.55;10.70;;;;;;;10.02;100.00;100280.50;4959032;28;20193;-80
2022/04/29 04:58:27;;;;;;;12.57;11.30;;;;;;;10.12;100.00;100283.66;4958058;28;20207;-81
2022/04/29 05:00:54;;;;;;;12.68;10.95;;;;;;;10.26;100.00;100287.53;4957907;28;20207;-80
2022/04/29 05:03:22;;;;;;;20.25;11.85;;;;;;;10.38;99.95;100284.31;4958002;28;20251;-80
2022/04/29 05:05:48;;;;;;;11.90;10.65;;;;;;;10.48;98.04;100285.63;4959896;29;20247;-80
2022/04/29 05:08:15;;;;;;;13.52;11.35;;;;;;;10.57;97.51;100285.19;4960732;28;20279;-79
2022/04/29 05:10:42;;;;;;;15.00;10.98;;;;;;;10.62;96.98;100285.84;4960797;28;20212;-81
2022/04/29 05:13:08;;;;;;;12.70;11.35;;;;;;;10.73;95.73;100288.03;4958845;28;20300;-80
2022/04/29 05:15:36;;;;;;;16.67;12.05;;;;;;;10.71;95.96;100286.34;4960004;28;20205;-80
2022/04/29 05:18:03;;;;;;;11.70;10.52;;;;;;;10.75;94.95;100286.13;4959737;28;20247;-81
2022/04/29 05:20:31;;;;;;;18.20;15.05;;;;;;;10.82;94.83;100290.28;4962728;28;20197;-81
2022/04/29 05:22:58;;;;;;;14.43;12.25;;;;;;;10.88;93.74;100288.22;4960460;28;20636;-80
2022/04/29 05:25:24;;;;;;;13.25;11.88;;;;;;;10.95;93.89;100290.56;4960008;28;20680;-80
2022/04/29 05:27:54;;;;;;;13.38;10.77;;;;;;;11.07;92.46;100298.03;4959758;28;20204;-80
2022/04/29 05:30:20;;;;;;;16.05;10.80;;;;;;;11.06;92.13;100301.69;4960183;28;20264;-80
2022/04/29 05:32:47;;;;;;;15.57;12.10;;;;;;;11.21;91.54;100296.50;4958875;28;20272;-80
2022/04/29 05:35:14;;;;;;;15.65;13.98;;;;;;;11.26;91.83;100292.63;4959165;28;20209;-81
2022/04/29 05:37:42;;;;;;;14.38;11.20;;;;;;;11.25;90.20;100298.94;4962906;28;20243;-81
2022/04/29 05:42:59;;;;;;;17.40;14.63;;;;;;;11.64;87.79;100305.09;4953719;29;20271;-76
2022/04/29 05:45:26;;;;;;;14.55;12.02;;;;;;;11.72;86.47;100302.03;4953449;28;20196;-76
2022/04/29 05:47:52;;;;;;;18.15;12.93;;;;;;;11.92;85.20;100293.81;4942991;28;20196;-74
2022/04/29 05:50:19;;;;;;;20.15;18.25;;;;;;;12.00;84.10;100301.47;4949601;28;20315;-76
2022/04/29 05:52:47;;;;;;;14.63;12.80;;;;;;;12.13;83.25;100305.28;4946367;28;20219;-74
2022/04/29 05:55:14;;;;;;;13.20;11.80;;;;;;;12.30;81.53;100294.44;4949660;29;20567;-75
2022/04/29 05:57:40;;;;;;;21.63;14.02;;;;;;;12.38;81.32;100295.84;4953220;28;20211;-75
2022/04/29 06:00:08;;;;;;;15.27;11.80;;;;;;;12.51;81.28;100296.94;4954008;28;20195;-75
2022/04/29 06:02:38;;;;;;;13.60;12.20;;;;;;;12.73;78.70;100292.09;4936949;29;20196;-74
2022/04/29 06:05:05;;;;;;;13.30;11.90;;;;;;;12.70;78.40;100299.47;4937363;29;20613;-73
2022/04/29 06:07:32;;;;;;;15.93;12.60;;;;;;;12.76;78.26;100298.28;4938836;29;20524;-75
2022/04/29 06:10:00;;;;;;;14.80;12.27;;;;;;;13.11;75.96;100304.38;4938202;28;20217;-75
2022/04/29 06:12:26;;;;;;;20.08;15.63;;;;;;;13.31;73.90;100295.13;4959092;29;20264;-74
2022/04/29 06:14:53;;;;;;;15.32;11.23;;;;;;;13.16;74.10;100302.28;4956295;28;20537;-73
2022/04/29 06:17:21;;;;;;;17.25;11.82;;;;;;;13.50;72.25;100293.09;4957913;28;20244;-74
2022/04/29 06:19:48;;;;;;;15.93;11.55;;;;;;;13.54;71.14;100291.06;4958482;28;20191;-74
2022/04/29 06:22:15;;;;;;;13.32;11.20;;;;;;;13.56;71.19;100289.16;4956767;28;20687;-75
2022/04/29 06:24:43;;;;;;;13.52;11.20;;;;;;;13.53;71.64;100289.34;4943369;29;20208;-73
2022/04/29 06:27:11;;;;;;;14.13;10.88;;;;;;;13.62;71.22;100285.22;4937706;29;20194;-74
2022/04/29 06:29:38;;;;;;;14.10;11.70;;;;;;;13.61;70.97;100299.69;4936864;29;20206;-74
2022/04/29 06:32:06;;;;;;;11.95;10.75;;;;;;;13.59;70.76;100294.41;4937183;29;20210;-75
2022/04/29 06:34:33;;;;;;;16.88;11.95;;;;;;;13.55;70.86;100284.72;4954157;29;20221;-74
2022/04/29 06:37:00;;;;;;;12.27;11.00;;;;;;;13.71;69.95;100287.38;4957724;28;20646;-74
2022/04/29 06:39:26;;;;;;;17.10;11.68;;;;;;;13.58;70.98;100294.47;4956529;28;20634;-74
2022/04/29 06:41:53;;;;;;;13.55;11.30;;;;;;;13.73;70.41;100280.91;4955766;28;20293;-73
2022/04/29 06:44:21;;;;;;;16.00;12.95;;;;;;;13.91;69.20;100287.03;4955904;28;20298;-74
2022/04/29 06:46:50;;;;;;;12.20;10.85;;;;;;;14.02;68.72;100282.78;4956209;28;20997;-75
2022/04/29 06:49:16;;;;;;;13.40;11.60;;;;;;;13.92;69.16;100283.34;4956442;28;20638;-75
2022/04/29 06:51:43;;;;;;;12.13;10.85;;;;;;;14.06;68.89;100293.31;4956338;28;20277;-74
2022/04/29 06:54:09;;;;;;;13.48;10.63;;;;;;;13.86;69.22;100288.25;4955742;28;20218;-75
2022/04/29 06:56:36;;;;;;;13.65;11.45;;;;;;;14.00;69.03;100299.13;4955423;28;20309;-74
2022/04/29 06:59:03;;;;;;;15.48;11.88;;;;;;;13.91;68.36;100300.56;4955916;28;20201;-75
2022/04/29 07:01:32;;;;;;;14.13;11.10;;;;;;;13.81;69.43;100291.25;4954747;28;20207;-74
2022/04/29 07:03:59;;;;;;;19.60;12.20;;;;;;;13.90;68.76;100289.81;4955693;28;20204;-73
2022/04/29 07:06:25;;;;;;;16.60;11.05;;;;;;;13.76;68.50;100285.25;4955675;28;20596;-74
2022/04/29 07:08:52;;;;;;;14.07;10.93;;;;;;;13.88;68.35;100292.63;4955501;28;20279;-74
2022/04/29 07:11:18;;;;;;;11.85;10.75;;;;;;;14.07;66.53;100289.66;4955224;28;20210;-73
2022/04/29 07:13:45;;;;;;;12.40;10.00;;;;;;;14.34;66.04;100284.38;4955657;28;21040;-75
2022/04/29 07:16:12;;;;;;;12.40;10.35;;;;;;;14.68;64.45;100284.97;4954420;28;20302;-75
2022/04/29 07:18:40;;;;;;;10.85;9.77;;;;;;;14.74;62.87;100287.28;4955566;28;20234;-73
2022/04/29 07:21:07;;;;;;;11.07;9.98;;;;;;;15.23;61.29;100294.03;4955287;28;20262;-74
2022/04/29 07:23:34;;;;;;;13.30;10.82;;;;;;;15.56;59.92;100285.47;4955330;28;20634;-74
2022/04/29 07:26:00;;;;;;;13.27;10.75;;;;;;;15.53;60.16;100291.09;4972710;28;20238;-74
2022/04/29 07:28:27;;;;;;;11.50;10.23;;;;;;;15.61;58.77;100290.59;4974505;28;20192;-73
2022/04/29 07:30:56;;;;;;;12.25;10.45;;;;;;;15.82;58.52;100288.28;4975172;28;20891;-73
2022/04/29 07:33:23;;;;;;;14.52;11.05;;;;;;;16.19;56.14;100285.69;4956331;28;20631;-75
2022/04/29 07:44:03;;;;;;;13.45;9.95;;;;;;;16.04;56.42;100279.50;4954037;29;20213;-73
2022/04/29 07:46:30;;;;;;;15.15;11.40;;;;;;;16.11;56.34;100283.53;4955083;28;20283;-74
2022/04/29 07:48:56;;;;;;;15.45;11.25;;;;;;;15.94;56.01;100284.72;4955371;28;20204;-75
2022/04/29 07:51:24;;;;;;;14.90;10.38;;;;;;;16.20;54.95;100290.16;4950915;28;20214;-73
2022/04/29 07:53:51;;;;;;;15.27;10.70;;;;;;;15.80;55.88;100292.94;4955552;28;20982;-74
2022/04/29 07:56:18;;;;;;;10.65;9.63;;;;;;;15.82;56.12;100293.72;4953432;28;20193;-72
2022/04/29 07:58:44;;;;;;;12.10;9.50;;;;;;;15.75;55.59;100297.81;4944712;29;20536;-75
2022/04/29 08:01:11;;;;;;;11.35;9.77;;;;;;;15.83;54.70;100298.19;4955066;28;20228;-74
2022/04/29 08:03:38;;;;;;;12.40;10.25;;;;;;;16.29;53.44;100299.53;4948838;28;20185;-73
2022/04/29 08:06:06;;;;;;;11.15;9.52;;;;;;;16.43;52.22;100297.53;4935602;29;20182;-75
2022/04/29 08:08:35;;;;;;;11.35;9.73;;;;;;;16.65;52.24;100296.88;4935920;29;20653;-74
2022/04/29 08:11:02;;;;;;;15.70;12.10;;;;;;;17.05;51.78;100287.69;4936102;29;20469;-76
2022/04/29 08:13:29;;;;;;;13.65;10.07;;;;;;;17.40;50.64;100289.63;4935892;29;20296;-77
2022/04/29 08:15:58;;;;;;;12.95;9.32;;;;;;;17.46;50.49;100289.16;4941702;29;20205;-75
2022/04/29 08:18:25;;;;;;;13.30;8.98;;;;;;;17.43;50.62;100289.38;4954893;28;20239;-75
2022/04/29 08:20:53;;;;;;;10.10;8.60;;;;;;;17.00;51.68;100285.28;4954900;28;20216;-78
2022/04/29 08:23:20;;;;;;;12.50;10.13;;;;;;;17.07;51.62;100288.41;4954272;28;20650;-76
2022/04/29 08:25:48;;;;;;;11.20;9.30;;;;;;;17.39;50.41;100282.41;4954405;28;20201;-76
2022/04/29 08:28:15;;;;;;;9.75;8.73;;;;;;;17.35;50.21;100286.38;4952935;28;20691;-75
2022/04/29 08:30:42;;;;;;;10.43;8.90;;;;;;;17.08;50.56;100288.31;4950460;28;20280;-76
2022/04/29 08:33:13;;;;;;;9.10;8.18;;;;;;;17.04;50.95;100278.63;4935626;29;20588;-76
2022/04/29 08:35:39;;;;;;;11.15;9.45;;;;;;;17.07;51.22;100278.44;4949410;29;20201;-76
2022/04/29 08:38:10;;;;;;;9.70;8.77;;;;;;;17.60;49.66;100278.06;4953632;29;20197;-77
2022/04/29 08:40:41;;;;;;;9.93;8.50;;;;;;;17.55;49.32;100269.41;4955208;28;20629;-75
2022/04/29 08:43:12;;;;;;;13.13;9.57;;;;;;;17.53;49.14;100268.63;4940235;28;20219;-76
2022/04/29 08:45:39;;;;;;;9.13;8.20;;;;;;;18.09;48.39;100279.75;4935497;29;20217;-74
2022/04/29 08:48:06;;;;;;;11.27;8.70;;;;;;;18.10;47.70;100273.28;4935508;29;20195;-75
2022/04/29 08:50:33;;;;;;;11.40;8.73;;;;;;;17.79;48.36;100273.91;4948094;29;20211;-75
2022/04/29 08:53:00;;;;;;;8.50;7.30;;;;;;;17.48;48.70;100273.56;4954039;28;20206;-75
2022/04/29 09:01:01;;;;;;;15.77;9.50;;;;;;;17.77;46.74;100268.59;4954371;29;20272;-74
2022/04/29 09:03:28;;;;;;;13.05;8.32;;;;;;;17.85;46.35;100268.91;4953671;28;20237;-74
2022/04/29 09:05:55;;;;;;;9.98;8.40;;;;;;;18.39;45.42;100271.97;4944618;28;20306;-74
2022/04/29 09:08:23;;;;;;;10.52;7.88;;;;;;;18.76;43.96;100264.41;4946074;29;20202;-75
2022/04/29 09:10:52;;;;;;;10.80;8.40;;;;;;;19.50;42.27;100261.03;4953719;28;20520;-74
2022/04/29 09:13:24;;;;;;;15.23;9.48;;;;;;;19.95;41.56;100269.03;4951382;28;20250;-74
2022/04/29 09:15:51;;;;;;;9.43;8.43;;;;;;;20.31;41.09;100267.69;4934528;29;20507;-76
2022/04/29 09:18:37;;;;;;;8.43;7.28;;;;;;;20.29;39.40;100260.63;4935645;29;20240;-75
2022/04/29 09:21:08;;;;;;;9.27;7.37;;;;;;;20.35;38.03;100258.22;4949162;28;20192;-75
2022/04/29 09:23:37;;;;;;;13.65;8.40;;;;;;;20.85;37.89;100253.81;4950613;28;20429;-74
2022/04/29 09:26:06;;;;;;;9.67;7.93;;;;;;;20.88;37.04;100248.94;4952147;28;20567;-75
2022/04/29 09:28:34;;;;;;;7.40;6.70;;;;;;;20.71;38.38;100246.84;4952951;28;20468;-75
2022/04/29 09:31:02;;;;;;;9.67;8.13;;;;;;;20.83;37.42;100245.75;4953142;28;20448;-75
2022/04/29 09:33:30;;;;;;;8.60;7.40;;;;;;;20.40;38.37;100244.97;4952963;28;20571;-74
2022/04/29 09:35:57;;;;;;;10.13;7.83;;;;;;;20.26;38.91;100242.63;4952430;28;20464;-74
2022/04/29 09:41:08;;;;;;;9.30;7.07;;;;;;;20.75;34.85;100243.69;4944139;29;20428;-74
2022/04/29 09:43:38;;;;;;;7.20;6.53;;;;;;;20.82;34.31;100239.41;4941526;29;20807;-74
2022/04/29 09:46:15;;;;;;;6.47;5.77;;;;;;;21.16;33.90;100240.91;4948557;28;20454;-74
2022/04/29 09:49:06;;;;;;;6.97;6.27;;;;;;;20.93;33.51;100234.81;4954040;29;20911;-75
2022/04/29 09:51:44;;;;;;;7.70;6.90;;;;;;;20.17;33.78;100227.88;4937488;29;20476;-76
2022/04/29 09:54:16;;;;;;;7.17;6.47;;;;;;;20.39;33.50;100226.81;4939177;29;20479;-74
2022/04/29 09:56:44;;;;;;;13.90;6.63;;;;;;;19.83;35.31;100231.81;4946544;29;20946;-76
2022/04/29 09:59:12;;;;;;;7.77;6.50;;;;;;;20.12;35.33;100224.66;4945252;28;20538;-75
2022/04/29 10:01:42;;;;;;;7.90;7.07;;;;;;;19.79;34.95;100223.91;4949853;28;20439;-75
2022/04/29 10:04:10;;;;;;;7.17;6.47;;;;;;;20.19;34.36;100219.53;4944915;28;20453;-75
2022/04/29 10:06:40;;;;;;;7.63;6.60;;;;;;;20.48;33.80;100216.94;4946177;28;20451;-75
2022/04/29 10:09:11;;;;;;;7.47;5.60;;;;;;;21.04;31.13;100215.53;4956770;28;20435;-77
2022/04/29 10:11:39;;;;;;;5.43;4.80;;;;;;;21.85;30.71;100213.41;4955277;28;20459;-76
2022/04/29 10:14:08;;;;;;;6.50;5.80;;;;;;;22.40;29.42;100211.84;4955093;28;20472;-76
2022/04/29 10:16:39;;;;;;;8.10;5.27;;;;;;;22.34;29.80;100210.59;4953787;28;20493;-75
2022/04/29 10:21:56;;;;;;;5.40;4.80;;;;;;;22.53;28.49;100198.66;4955365;29;20439;-75
2022/04/29 10:24:24;;;;;;;8.20;6.70;;;;;;;22.30;28.79;100202.81;4956542;28;20899;-74
2022/04/29 10:26:54;;;;;;;8.00;6.23;;;;;;;22.14;29.43;100203.38;4953755;28;20791;-75
2022/04/29 10:29:20;;;;;;;6.40;5.17;;;;;;;21.99;28.81;100184.66;4955428;29;20772;-75
2022/04/29 10:32:06;;;;;;;8.17;6.00;;;;;;;21.42;29.61;100189.22;4956164;28;20567;-75
2022/04/29 10:34:34;;;;;;;6.87;6.17;;;;;;;21.15;30.59;100193.50;4954957;28;20980;-74
2022/04/29 10:37:02;;;;;;;7.80;6.50;;;;;;;21.70;30.56;100197.56;4955129;29;21254;-75
2022/04/29 10:39:29;;;;;;;6.00;5.40;;;;;;;22.28;29.92;100194.72;4955108;28;20458;-75
2022/04/29 10:42:01;;;;;;;7.37;6.67;;;;;;;21.90;31.09;100184.69;4955986;28;20463;-75
2022/04/29 10:44:28;;;;;;;6.60;6.00;;;;;;;21.82;31.31;100185.41;4946932;28;20513;-75
2022/04/29 10:46:55;;;;;;;7.83;6.03;;;;;;;21.38;32.43;100185.88;4953249;29;20451;-75
2022/04/29 10:49:27;;;;;;;7.63;6.60;;;;;;;21.13;33.28;100186.44;4955683;28;20921;-76
2022/04/29 10:51:55;;;;;;;5.97;5.47;;;;;;;21.84;32.79;100192.50;4955783;28;20965;-75
2022/04/29 10:54:45;;;;;;;8.83;7.03;;;;;;;22.14;32.59;100185.06;4955087;28;20487;-74
2022/04/29 10:57:14;;;;;;;8.50;7.63;;;;;;;22.15;32.24;100184.03;4941512;28;20441;-75
2022/04/29 10:59:52;;;;;;;9.70;6.20;;;;;;;21.73;32.66;100186.31;4936966;29;20524;-74
2022/04/29 11:02:29;;;;;;;6.73;6.10;;;;;;;21.58;32.37;100183.16;4938180;29;20440;-74
2022/04/29 11:04:58;;;;;;;6.80;6.20;;;;;;;21.42;32.67;100170.91;4945962;28;20497;-75
2022/04/29 11:07:45;;;;;;;7.57;6.87;;;;;;;21.42;32.66;100167.31;4950649;28;20463;-75
2022/04/29 11:10:17;;;;;;;7.53;6.73;;;;;;;21.48;32.69;100166.72;4938815;28;20456;-76
2022/04/29 11:12:56;;;;;;;8.07;5.97;;;;;;;21.90;32.05;100166.38;4942948;29;20444;-75
2022/04/29 11:15:26;;;;;;;6.63;5.93;;;;;;;22.58;31.40;100157.88;4947964;28;20479;-75
2022/04/29 11:17:53;;;;;;;6.27;5.73;;;;;;;22.57;31.42;100158.91;4948139;28;20570;-76
2022/04/29 11:20:26;;;;;;;8.47;6.80;;;;;;;23.23;30.57;100156.91;4944991;28;20525;-76
2022/04/29 11:25:50;;;;;;;6.13;5.53;;;;;;;23.16;30.25;100148.41;4944582;28;20464;-75
2022/04/29 11:28:17;;;;;;;8.37;6.50;;;;;;;22.32;31.16;100154.09;4946901;28;20944;-75
2022/04/29 11:30:44;;;;;;;10.47;5.80;;;;;;;21.60;32.86;100145.53;4955739;28;20447;-77
2022/04/29 11:33:11;;;;;;;7.20;6.60;;;;;;;22.08;32.22;100139.03;4947068;28;20938;-75
2022/04/29 11:35:39;;;;;;;6.80;6.10;;;;;;;22.05;31.79;100142.09;4940451;29;20476;-74
2022/04/29 11:38:08;;;;;;;9.30;6.80;;;;;;;22.13;31.43;100135.84;4943492;28;20489;-76
2022/04/29 11:40:38;;;;;;;9.73;8.93;;;;;;;21.94;31.54;100132.16;4943208;29;20452;-75
2022/04/29 11:43:08;;;;;;;7.07;6.10;;;;;;;22.30;30.97;100143.31;4940825;28;20452;-76
2022/04/29 11:45:35;;;;;;;6.07;5.47;;;;;;;22.10;30.58;100126.03;4950215;28;20460;-76
2022/04/29 11:48:03;;;;;;;10.13;5.77;;;;;;;22.66;29.88;100133.28;4955052;28;20448;-75
2022/04/29 11:50:34;;;;;;;9.63;8.53;;;;;;;23.12;29.25;100133.28;4954325;28;20440;-76